createdAt,value
2023-04-27T00:01:53.220Z,5.80
2023-04-27T00:04:21.811Z,5.90
2023-04-27T00:06:50.629Z,5.89
2023-04-27T00:09:20.243Z,5.89
2023-04-27T00:11:48.500Z,5.91
2023-04-27T00:14:16.789Z,5.90
2023-04-27T00:16:45.309Z,5.87
2023-04-27T00:19:14.080Z,5.96
2023-04-27T00:21:42.871Z,5.77
2023-04-27T00:24:11.119Z,5.81
2023-04-27T00:26:40.698Z,5.89
2023-04-27T00:29:08.980Z,5.70
2023-04-27T00:31:37.272Z,5.67
2023-04-27T00:34:05.549Z,5.74
2023-04-27T00:36:35.103Z,5.68
2023-04-27T00:39:04.672Z,5.65
2023-04-27T00:41:33.786Z,5.57
2023-04-27T00:44:03.370Z,5.61
2023-04-27T00:46:31.798Z,5.54
2023-04-27T00:49:01.498Z,5.54
2023-04-27T00:51:30.266Z,5.59
2023-04-27T00:53:59.811Z,5.51
2023-04-27T00:56:28.108Z,5.56
2023-04-27T00:58:56.924Z,5.55
2023-04-27T01:01:28.001Z,5.49
2023-04-27T01:03:56.430Z,5.52
2023-04-27T01:06:24.871Z,5.54
2023-04-27T01:08:53.484Z,5.49
2023-04-27T01:11:23.524Z,5.32
2023-04-27T01:13:52.552Z,5.32
2023-04-27T01:16:21.133Z,5.35
2023-04-27T01:18:50.810Z,5.32
2023-04-27T01:21:19.081Z,5.33
2023-04-27T01:23:48.878Z,5.21
2023-04-27T01:26:17.483Z,5.28
2023-04-27T01:28:45.859Z,5.18
2023-04-27T01:31:15.061Z,5.21
2023-04-27T01:33:43.735Z,5.10
2023-04-27T01:36:12.072Z,5.21
2023-04-27T01:38:41.101Z,5.12
2023-04-27T01:41:10.755Z,5.22
2023-04-27T01:43:39.102Z,5.27
2023-04-27T01:46:08.120Z,5.21
2023-04-27T01:48:37.061Z,5.11
2023-04-27T01:51:05.689Z,5.16
2023-04-27T01:53:34.391Z,5.08
2023-04-27T01:56:03.528Z,5.01
2023-04-27T01:58:36.002Z,5.05
2023-04-27T02:01:04.600Z,5.04
2023-04-27T02:03:33.094Z,5.05
2023-04-27T02:06:01.681Z,4.98
2023-04-27T02:08:30.032Z,4.93
2023-04-27T02:10:58.344Z,5.02
2023-04-27T02:13:26.585Z,4.92
2023-04-27T02:15:56.870Z,4.96
2023-04-27T02:18:25.403Z,4.90
2023-04-27T02:20:53.678Z,4.97
2023-04-27T02:23:22.291Z,4.98
2023-04-27T02:25:50.574Z,4.88
2023-04-27T02:28:18.807Z,4.92
2023-04-27T02:30:47.803Z,4.97
2023-04-27T02:33:17.469Z,4.98
2023-04-27T02:35:46.084Z,4.96
2023-04-27T02:38:14.320Z,4.93
2023-04-27T02:40:44.327Z,4.87
2023-04-27T02:43:12.878Z,4.94
2023-04-27T02:45:41.461Z,4.91
2023-04-27T02:48:09.813Z,4.91
2023-04-27T02:50:43.176Z,4.86
2023-04-27T02:53:12.042Z,4.82
2023-04-27T02:55:40.530Z,4.81
2023-04-27T02:58:08.805Z,4.76
2023-04-27T03:00:37.424Z,4.78
2023-04-27T03:03:06.577Z,4.82
2023-04-27T03:05:35.206Z,4.78
2023-04-27T03:08:05.060Z,4.76
2023-04-27T03:10:33.431Z,4.78
2023-04-27T03:13:01.660Z,4.77
2023-04-27T03:15:29.929Z,4.77
2023-04-27T03:17:58.309Z,4.72
2023-04-27T03:20:26.783Z,4.78
2023-04-27T03:22:55.430Z,4.71
2023-04-27T03:25:25.414Z,4.67
2023-04-27T03:27:53.689Z,4.76
2023-04-27T03:30:23.936Z,4.61
2023-04-27T03:32:52.278Z,4.63
2023-04-27T03:35:20.819Z,4.56
2023-04-27T03:37:49.076Z,4.57
2023-04-27T03:40:17.459Z,4.59
2023-04-27T03:42:47.124Z,4.50
2023-04-27T03:45:16.793Z,4.50
2023-04-27T03:47:45.329Z,4.48
2023-04-27T03:50:16.325Z,4.48
2023-04-27T03:52:44.747Z,4.45
2023-04-27T03:55:13.560Z,4.46
2023-04-27T03:57:43.568Z,4.58
2023-04-27T04:00:14.794Z,4.54
2023-04-27T04:02:44.046Z,4.54
2023-04-27T04:05:14.857Z,4.51
2023-04-27T04:07:45.992Z,4.56
2023-04-27T04:10:14.559Z,4.61
2023-04-27T04:12:42.970Z,4.63
2023-04-27T04:15:11.552Z,4.61
2023-04-27T04:17:41.478Z,4.56
2023-04-27T04:20:10.859Z,4.66
2023-04-27T04:22:39.513Z,4.61
2023-04-27T04:25:09.662Z,4.58
2023-04-27T04:27:38.564Z,4.63
2023-04-27T04:30:08.504Z,4.57
2023-04-27T04:32:38.869Z,4.51
2023-04-27T04:35:09.626Z,4.63
2023-04-27T04:37:38.087Z,4.53
2023-04-27T04:40:10.117Z,4.54
2023-04-27T04:42:40.548Z,4.60
2023-04-27T04:45:11.079Z,4.61
2023-04-27T04:47:39.713Z,4.57
2023-04-27T04:50:10.648Z,4.54
2023-04-27T04:52:39.049Z,4.62
2023-04-27T04:55:08.191Z,4.58
2023-04-27T04:57:36.738Z,4.61
2023-04-27T05:00:12.462Z,4.59
2023-04-27T05:02:41.711Z,4.59
2023-04-27T05:05:11.746Z,4.62
2023-04-27T05:07:40.531Z,4.56
2023-04-27T05:10:09.490Z,4.61
2023-04-27T05:12:37.751Z,4.72
2023-04-27T05:15:06.959Z,4.78
2023-04-27T05:17:35.178Z,4.77
2023-04-27T05:20:05.015Z,4.90
2023-04-27T05:22:34.901Z,5.02
2023-04-27T05:25:03.486Z,5.11
2023-04-27T05:27:31.839Z,5.20
2023-04-27T05:30:00.194Z,5.27
2023-04-27T05:32:28.414Z,5.36
2023-04-27T05:34:56.631Z,5.47
2023-04-27T05:37:24.992Z,5.69
2023-04-27T05:39:54.613Z,5.57
2023-04-27T05:42:22.815Z,5.56
2023-04-27T05:44:51.175Z,5.66
2023-04-27T05:47:19.390Z,5.60
2023-04-27T05:49:51.975Z,5.65
2023-04-27T05:52:20.283Z,5.79
2023-04-27T05:54:48.916Z,5.97
2023-04-27T05:57:18.736Z,5.89
2023-04-27T05:59:46.957Z,5.97
2023-04-27T06:02:17.665Z,6.07
2023-04-27T06:04:46.548Z,6.13
2023-04-27T06:07:16.524Z,6.12
2023-04-27T06:09:44.821Z,6.22
2023-04-27T06:12:13.134Z,6.34
2023-04-27T06:14:42.717Z,6.34
2023-04-27T06:17:11.216Z,6.44
2023-04-27T06:19:39.451Z,6.58
2023-04-27T06:22:07.741Z,6.46
2023-04-27T06:24:36.590Z,6.34
2023-04-27T06:27:05.001Z,6.54
2023-04-27T06:29:33.382Z,6.50
2023-04-27T06:32:06.523Z,6.68
2023-04-27T06:34:35.288Z,6.85
2023-04-27T06:37:03.547Z,6.98
2023-04-27T06:39:32.142Z,7.07
2023-04-27T06:42:00.424Z,6.95
2023-04-27T06:44:28.634Z,6.99
2023-04-27T06:46:56.862Z,7.31
2023-04-27T06:49:26.759Z,7.29
2023-04-27T06:51:55.084Z,7.24
2023-04-27T06:54:23.317Z,7.29
2023-04-27T06:56:51.776Z,7.32
2023-04-27T06:59:20.065Z,7.48
2023-04-27T07:01:48.425Z,7.53
2023-04-27T07:04:16.917Z,7.56
2023-04-27T07:06:46.634Z,7.55
2023-04-27T07:09:26.524Z,7.71
2023-04-27T07:11:55.756Z,7.93
2023-04-27T07:14:24.045Z,7.86
2023-04-27T07:16:52.293Z,7.79
2023-04-27T07:19:20.632Z,7.96
2023-04-27T07:21:50.352Z,8.15
2023-04-27T07:24:18.568Z,8.33
2023-04-27T07:26:46.927Z,8.13
2023-04-27T07:29:26.502Z,8.22
2023-04-27T07:31:56.726Z,8.53
2023-04-27T07:34:25.189Z,8.48
2023-04-27T07:36:55.102Z,8.58
2023-04-27T07:39:24.037Z,8.77
2023-04-27T07:41:52.709Z,8.92
2023-04-27T07:44:21.112Z,9.22
2023-04-27T07:46:50.193Z,9.32
2023-04-27T07:49:18.497Z,9.50
2023-04-27T07:51:46.935Z,9.42
2023-04-27T07:54:16.487Z,9.39
2023-04-27T07:56:44.810Z,9.67
2023-04-27T07:59:14.893Z,9.64
2023-04-27T08:01:43.409Z,9.45
2023-04-27T08:04:13.059Z,9.75
2023-04-27T08:06:42.099Z,9.88
2023-04-27T08:09:11.319Z,9.97
2023-04-27T08:11:41.325Z,10.14
2023-04-27T08:14:13.611Z,10.44
2023-04-27T08:16:42.781Z,10.13
2023-04-27T08:19:11.692Z,10.26
2023-04-27T08:21:40.165Z,10.62
2023-04-27T08:24:08.674Z,10.35
2023-04-27T08:26:36.992Z,10.40
2023-04-27T08:29:19.499Z,10.45
2023-04-27T08:31:56.752Z,10.73
2023-04-27T08:34:25.365Z,10.84
2023-04-27T08:36:53.995Z,10.95
2023-04-27T08:39:22.510Z,10.71
2023-04-27T08:41:50.817Z,10.52
2023-04-27T08:44:20.638Z,10.84
2023-04-27T08:46:52.325Z,10.98
2023-04-27T08:49:21.716Z,10.92
2023-04-27T08:51:50.326Z,11.31
2023-04-27T08:54:20.087Z,11.24
2023-04-27T08:56:48.324Z,11.14
2023-04-27T08:59:17.842Z,11.44
2023-04-27T09:01:49.486Z,11.26
2023-04-27T09:04:19.841Z,11.29
2023-04-27T09:06:49.780Z,11.32
2023-04-27T09:09:25.218Z,11.23
2023-04-27T09:11:53.593Z,11.32
2023-04-27T09:14:23.663Z,11.41
2023-04-27T09:16:59.326Z,11.64
2023-04-27T09:19:28.691Z,11.70
2023-04-27T09:22:07.810Z,11.76
2023-04-27T09:24:36.221Z,11.84
2023-04-27T09:27:05.155Z,11.88
2023-04-27T09:29:34.919Z,12.01
2023-04-27T09:32:17.244Z,12.43
2023-04-27T09:34:46.459Z,12.13
2023-04-27T09:37:15.808Z,12.73
2023-04-27T09:39:44.301Z,12.75
2023-04-27T09:42:13.415Z,12.47
2023-04-27T09:44:41.655Z,13.24
2023-04-27T09:47:12.193Z,13.35
2023-04-27T09:49:43.350Z,13.04
2023-04-27T09:52:11.799Z,13.49
2023-04-27T09:54:40.934Z,13.01
2023-04-27T09:57:18.958Z,12.67
2023-04-27T10:00:00.912Z,13.10
2023-04-27T10:02:49.965Z,13.33
2023-04-27T10:05:37.144Z,13.19
2023-04-27T10:08:07.200Z,13.32
2023-04-27T10:10:44.639Z,12.94
2023-04-27T10:13:22.943Z,12.92
2023-04-27T10:15:52.418Z,13.37
2023-04-27T10:18:30.637Z,13.54
2023-04-27T10:21:10.736Z,13.05
2023-04-27T10:23:48.434Z,13.19
2023-04-27T10:26:23.639Z,13.40
2023-04-27T10:28:59.740Z,13.22
2023-04-27T10:31:31.326Z,13.91
2023-04-27T10:34:11.625Z,13.96
2023-04-27T10:36:41.267Z,14.26
2023-04-27T10:39:17.617Z,13.82
2023-04-27T10:41:54.344Z,13.19
2023-04-27T10:44:29.562Z,13.16
2023-04-27T10:46:59.816Z,13.63
2023-04-27T10:49:30.386Z,13.77
2023-04-27T10:52:00.825Z,13.67
2023-04-27T10:54:29.612Z,13.93
2023-04-27T10:57:03.883Z,13.73
2023-04-27T10:59:32.309Z,13.70
2023-04-27T11:02:00.679Z,13.56
2023-04-27T11:04:41.910Z,13.79
2023-04-27T11:07:11.298Z,13.63
2023-04-27T11:09:40.641Z,14.34
2023-04-27T11:12:10.241Z,14.64
2023-04-27T11:14:38.710Z,14.04
2023-04-27T11:17:06.986Z,14.07
2023-04-27T11:19:47.917Z,14.24
2023-04-27T11:22:17.860Z,13.84
2023-04-27T11:24:50.571Z,14.37
2023-04-27T11:27:20.039Z,14.20
2023-04-27T11:29:48.300Z,14.67
2023-04-27T11:32:26.612Z,14.30
2023-04-27T11:34:57.797Z,14.23
2023-04-27T11:37:28.577Z,14.52
2023-04-27T11:40:01.438Z,14.95
2023-04-27T11:42:30.914Z,14.70
2023-04-27T11:45:01.309Z,14.18
2023-04-27T11:47:30.831Z,14.96
2023-04-27T11:50:04.865Z,15.10
2023-04-27T11:52:34.527Z,15.13
2023-04-27T11:55:04.689Z,15.15
2023-04-27T11:57:35.875Z,15.63
2023-04-27T12:00:10.995Z,15.16
2023-04-27T12:02:44.142Z,14.87
2023-04-27T12:05:14.761Z,14.71
2023-04-27T12:07:43.535Z,15.26
2023-04-27T12:10:12.515Z,15.21
2023-04-27T12:12:40.750Z,15.96
2023-04-27T12:15:10.227Z,15.81
2023-04-27T12:17:39.274Z,15.67
2023-04-27T12:20:08.779Z,15.53
2023-04-27T12:22:38.745Z,15.26
2023-04-27T12:25:07.734Z,15.30
2023-04-27T12:27:36.054Z,16.06
2023-04-27T12:30:04.857Z,16.48
2023-04-27T12:32:33.212Z,16.49
2023-04-27T12:35:01.637Z,16.27
2023-04-27T12:37:30.052Z,16.11
2023-04-27T12:39:59.886Z,15.87
2023-04-27T12:42:28.182Z,15.22
2023-04-27T12:44:56.955Z,15.33
2023-04-27T12:47:42.986Z,15.44
2023-04-27T12:50:13.846Z,15.88
2023-04-27T12:52:42.078Z,15.92
2023-04-27T12:55:21.493Z,15.89
2023-04-27T12:58:00.244Z,15.80
2023-04-27T13:00:29.499Z,15.69
2023-04-27T13:02:58.432Z,15.41
2023-04-27T13:05:27.570Z,15.85
2023-04-27T13:07:56.981Z,16.41
2023-04-27T13:10:26.610Z,16.73
2023-04-27T13:12:55.808Z,16.77
2023-04-27T13:15:24.024Z,16.17
2023-04-27T13:17:53.239Z,17.07
2023-04-27T13:20:21.763Z,17.46
2023-04-27T13:22:50.040Z,16.45
2023-04-27T13:25:20.136Z,17.04
2023-04-27T13:27:50.231Z,16.34
2023-04-27T13:30:18.531Z,16.33
2023-04-27T13:32:46.807Z,16.57
2023-04-27T13:35:15.868Z,16.20
2023-04-27T13:37:44.301Z,15.85
2023-04-27T13:40:13.114Z,15.82
2023-04-27T13:42:41.707Z,15.45
2023-04-27T13:45:12.126Z,16.17
2023-04-27T13:47:40.930Z,16.84
2023-04-27T13:50:11.571Z,17.26
2023-04-27T13:52:42.650Z,17.61
2023-04-27T13:55:12.093Z,16.16
2023-04-27T13:57:40.546Z,15.15
2023-04-27T14:00:11.521Z,15.59
2023-04-27T14:02:41.481Z,15.52
2023-04-27T14:05:10.321Z,16.32
2023-04-27T14:07:38.605Z,16.32
2023-04-27T14:10:08.297Z,16.46
2023-04-27T14:12:37.157Z,16.24
2023-04-27T14:15:06.231Z,16.49
2023-04-27T14:17:34.694Z,17.46
2023-04-27T14:20:07.099Z,17.04
2023-04-27T14:22:35.982Z,17.83
2023-04-27T14:25:04.282Z,17.59
2023-04-27T14:27:32.629Z,16.74
2023-04-27T14:30:02.144Z,16.36
2023-04-27T14:32:30.407Z,15.85
2023-04-27T14:34:58.620Z,15.68
2023-04-27T14:37:28.240Z,15.45
2023-04-27T14:39:57.836Z,15.22
2023-04-27T14:42:26.057Z,15.24
2023-04-27T14:44:54.259Z,14.88
2023-04-27T14:47:22.720Z,15.07
2023-04-27T14:49:51.292Z,15.38
2023-04-27T14:52:19.500Z,15.28
2023-04-27T14:54:49.132Z,15.44
2023-04-27T14:57:17.561Z,15.45
2023-04-27T14:59:45.768Z,15.36
2023-04-27T15:02:14.078Z,15.65
2023-04-27T15:04:42.357Z,15.95
2023-04-27T15:07:11.102Z,17.03
2023-04-27T15:09:39.354Z,17.01
2023-04-27T15:12:09.893Z,16.77
2023-04-27T15:14:38.184Z,16.61
2023-04-27T15:17:06.541Z,16.74
2023-04-27T15:19:35.046Z,16.87
2023-04-27T15:22:03.297Z,15.82
2023-04-27T15:24:31.655Z,16.30
2023-04-27T15:26:59.891Z,15.86
2023-04-27T15:29:29.483Z,15.68
2023-04-27T15:31:57.750Z,15.91
2023-04-27T15:34:25.949Z,16.44
2023-04-27T15:36:54.158Z,15.82
2023-04-27T15:39:22.410Z,16.37
2023-04-27T15:41:50.772Z,16.05
2023-04-27T15:44:19.026Z,16.22
2023-04-27T15:46:48.784Z,16.01
2023-04-27T15:49:17.005Z,15.46
2023-04-27T15:51:45.258Z,15.43
2023-04-27T15:54:13.461Z,14.93
2023-04-27T15:56:41.698Z,15.01
2023-04-27T15:59:09.965Z,14.72
2023-04-27T16:01:38.279Z,14.89
2023-04-27T16:04:08.135Z,14.73
2023-04-27T16:06:37.515Z,14.66
2023-04-27T16:09:08.996Z,14.37
2023-04-27T16:11:38.702Z,14.57
2023-04-27T16:14:07.031Z,14.54
2023-04-27T16:16:35.433Z,14.54
2023-04-27T16:19:03.844Z,14.64
2023-04-27T16:21:34.020Z,14.21
2023-04-27T16:24:02.302Z,14.20
2023-04-27T16:26:30.570Z,14.30
2023-04-27T16:28:58.897Z,14.25
2023-04-27T16:31:27.220Z,14.06
2023-04-27T16:33:55.598Z,14.14
2023-04-27T16:36:24.727Z,14.21
2023-04-27T16:38:54.412Z,14.28
2023-04-27T16:41:22.869Z,14.34
2023-04-27T16:43:51.455Z,14.18
2023-04-27T16:46:19.821Z,14.10
2023-04-27T16:48:48.221Z,14.08
2023-04-27T16:51:16.501Z,13.95
2023-04-27T16:53:44.675Z,14.12
2023-04-27T16:56:14.458Z,14.01
2023-04-27T16:58:42.731Z,13.92
2023-04-27T17:01:10.935Z,13.86
2023-04-27T17:03:39.283Z,13.91
2023-04-27T17:06:08.116Z,13.96
2023-04-27T17:08:36.380Z,14.03
2023-04-27T17:11:09.179Z,14.09
2023-04-27T17:13:39.018Z,13.77
2023-04-27T17:16:11.650Z,13.80
2023-04-27T17:18:40.075Z,13.77
2023-04-27T17:21:08.301Z,13.91
2023-04-27T17:23:36.877Z,13.83
2023-04-27T17:26:07.912Z,13.86
2023-04-27T17:28:37.993Z,13.77
2023-04-27T17:31:06.313Z,13.77
2023-04-27T17:33:34.550Z,13.71
2023-04-27T17:36:02.797Z,13.63
2023-04-27T17:38:31.231Z,13.54
2023-04-27T17:40:59.493Z,13.47
2023-04-27T17:43:27.759Z,13.37
2023-04-27T17:45:57.497Z,13.33
2023-04-27T17:48:25.864Z,13.27
2023-04-27T17:50:54.733Z,13.23
2023-04-27T17:53:22.989Z,13.33
2023-04-27T17:55:52.710Z,13.29
2023-04-27T17:58:21.018Z,13.26
2023-04-27T18:00:49.489Z,13.23
2023-04-27T18:03:19.353Z,13.18
2023-04-27T18:05:47.804Z,13.21
2023-04-27T18:08:16.098Z,13.20
2023-04-27T18:10:44.388Z,13.16
2023-04-27T18:13:13.043Z,13.11
2023-04-27T18:15:41.354Z,13.08
2023-04-27T18:18:10.526Z,13.06
2023-04-27T18:20:44.719Z,13.02
2023-04-27T18:23:13.019Z,13.00
2023-04-27T18:25:41.247Z,12.94
2023-04-27T18:28:09.512Z,12.89
2023-04-27T18:30:37.753Z,12.89
2023-04-27T18:33:06.273Z,12.86
2023-04-27T18:35:34.658Z,12.88
2023-04-27T18:38:04.327Z,12.79
2023-04-27T18:40:36.162Z,12.77
2023-04-27T18:43:04.435Z,12.73
2023-04-27T18:45:32.791Z,12.73
2023-04-27T18:48:01.244Z,12.73
2023-04-27T18:50:29.716Z,12.72
2023-04-27T18:52:59.888Z,12.72
2023-04-27T18:55:29.504Z,12.69
2023-04-27T18:57:57.785Z,12.61
2023-04-27T19:00:26.364Z,12.60
2023-04-27T19:02:54.854Z,12.61
2023-04-27T19:05:23.449Z,12.61
2023-04-27T19:07:51.951Z,12.59
2023-04-27T19:10:20.374Z,12.57
2023-04-27T19:12:49.973Z,12.53
2023-04-27T19:15:18.539Z,12.59
2023-04-27T19:17:48.678Z,12.58
2023-04-27T19:20:21.627Z,12.57
2023-04-27T19:22:49.838Z,12.51
2023-04-27T19:25:18.216Z,12.46
2023-04-27T19:27:46.961Z,12.49
2023-04-27T19:30:16.753Z,12.51
2023-04-27T19:32:45.058Z,12.48
2023-04-27T19:35:14.711Z,12.43
2023-04-27T19:37:42.978Z,12.37
2023-04-27T19:40:12.334Z,12.31
2023-04-27T19:42:40.698Z,12.38
2023-04-27T19:45:09.684Z,12.30
2023-04-27T19:47:39.519Z,12.33
2023-04-27T19:50:08.593Z,12.29
2023-04-27T19:52:36.891Z,12.31
2023-04-27T19:55:05.681Z,12.21
2023-04-27T19:57:34.272Z,12.26
2023-04-27T20:00:02.637Z,12.25
2023-04-27T20:02:43.326Z,12.18
2023-04-27T20:05:13.490Z,12.12
2023-04-27T20:07:42.661Z,12.11
2023-04-27T20:10:11.180Z,12.11
2023-04-27T20:12:55.330Z,12.04
2023-04-27T20:15:24.285Z,11.98
2023-04-27T20:17:54.078Z,11.92
2023-04-27T20:20:22.743Z,11.89
2023-04-27T20:22:51.399Z,11.91
2023-04-27T20:25:20.336Z,11.86
2023-04-27T20:27:48.670Z,11.88
2023-04-27T20:30:17.743Z,11.85
2023-04-27T20:32:46.658Z,11.88
2023-04-27T20:35:16.344Z,11.88
2023-04-27T20:37:44.617Z,11.85
2023-04-27T20:40:17.526Z,11.74
2023-04-27T20:42:46.422Z,11.70
2023-04-27T20:45:14.693Z,11.67
2023-04-27T20:47:43.244Z,11.64
2023-04-27T20:50:11.937Z,11.59
2023-04-27T20:52:41.606Z,11.53
2023-04-27T20:55:10.199Z,11.52
2023-04-27T20:57:38.436Z,11.53
2023-04-27T21:00:09.221Z,11.48
2023-04-27T21:02:37.761Z,11.53
2023-04-27T21:05:06.407Z,11.46
2023-04-27T21:07:37.663Z,11.49
2023-04-27T21:10:08.544Z,11.34
2023-04-27T21:12:36.842Z,11.20
2023-04-27T21:15:05.620Z,11.09
2023-04-27T21:17:34.544Z,10.97
2023-04-27T21:20:02.970Z,10.92
2023-04-27T21:22:31.330Z,10.93
2023-04-27T21:24:59.527Z,10.95
2023-04-27T21:27:30.678Z,10.90
2023-04-27T21:30:00.143Z,10.89
2023-04-27T21:32:28.453Z,10.83
2023-04-27T21:34:56.706Z,10.78
2023-04-27T21:37:24.976Z,10.74
2023-04-27T21:39:53.252Z,10.69
2023-04-27T21:42:21.512Z,10.64
2023-04-27T21:44:51.274Z,10.56
2023-04-27T21:47:19.613Z,10.57
2023-04-27T21:49:47.815Z,10.49
2023-04-27T21:52:16.157Z,10.38
2023-04-27T21:54:44.418Z,10.39
2023-04-27T21:57:12.645Z,10.34
2023-04-27T21:59:40.973Z,10.35
2023-04-27T22:02:10.888Z,10.40
2023-04-27T22:04:39.633Z,10.39
2023-04-27T22:07:08.959Z,10.46
2023-04-27T22:09:37.489Z,10.46
2023-04-27T22:12:06.560Z,10.52
2023-04-27T22:14:34.986Z,10.55
2023-04-27T22:17:03.232Z,10.55
2023-04-27T22:19:32.906Z,10.54
2023-04-27T22:22:01.235Z,10.54
2023-04-27T22:24:29.511Z,10.55
2023-04-27T22:26:57.737Z,10.56
2023-04-27T22:29:26.725Z,10.52
2023-04-27T22:31:55.232Z,10.52
2023-04-27T22:34:23.738Z,10.51
2023-04-27T22:36:54.174Z,10.52
2023-04-27T22:39:22.880Z,10.56
2023-04-27T22:41:51.561Z,10.52
2023-04-27T22:44:19.784Z,10.49
2023-04-27T22:46:48.087Z,10.42
2023-04-27T22:49:17.335Z,10.33
2023-04-27T22:51:47.201Z,10.33
2023-04-27T22:54:17.333Z,10.30
2023-04-27T22:56:45.909Z,10.21
2023-04-27T22:59:14.165Z,10.19
2023-04-27T23:01:42.439Z,10.24
2023-04-27T23:04:12.280Z,10.26
2023-04-27T23:06:40.921Z,10.22
2023-04-27T23:09:09.157Z,10.12
2023-04-27T23:11:40.257Z,10.20
2023-04-27T23:14:08.627Z,10.22
2023-04-27T23:16:37.305Z,10.24
2023-04-27T23:19:05.644Z,10.21
2023-04-27T23:21:33.835Z,10.24
2023-04-27T23:24:02.172Z,10.09
2023-04-27T23:26:30.498Z,10.20
2023-04-27T23:29:00.141Z,10.16
2023-04-27T23:31:28.459Z,10.20
2023-04-27T23:33:56.710Z,10.23
2023-04-27T23:36:25.047Z,10.21
2023-04-27T23:38:54.032Z,10.19
2023-04-27T23:41:23.361Z,10.18
2023-04-27T23:43:51.636Z,10.13
2023-04-27T23:46:21.295Z,10.18
2023-04-27T23:48:49.627Z,10.10
2023-04-27T23:51:17.878Z,10.15
2023-04-27T23:53:46.164Z,10.19
2023-04-27T23:56:18.601Z,10.08
2023-04-27T23:58:46.928Z,10.09
